<?xml version="1.0" encoding="UTF-8" standalone="no" ?>
<gpx xmlns="http://www.topografix.com/GPX/1/1" xmlns:xsi="http://www.w3.org/2001/XMLSchema-instance" xsi:schemaLocation="http://www.topografix.com/GPX/1/1 http://www.topografix.com/GPX/1/1/gpx.xsd" version="1.1" creator="VisuGPX - https://www.visugpx.com">
  <metadata>
    <name>CDS j10</name>
    <desc><![CDATA[Chemin du soleil]]></desc>
  </metadata>
  <trk>
    <name><![CDATA[ACTIVE LOG173004]]></name>
    <trkseg>
      <trkpt lat="44.09706" lon="6.55681">
        <ele>1139</ele>
        <time>2011-08-18T15:30:04Z</time>
      </trkpt>
      <trkpt lat="44.09706" lon="6.55682">
        <ele>1139</ele>
        <time>2011-08-18T15:30:25Z</time>
      </trkpt>
      <trkpt lat="44.097" lon="6.55677">
        <ele>1139</ele>
        <time>2011-08-18T15:30:36Z</time>
      </trkpt>
      <trkpt lat="44.09697" lon="6.5564">
        <ele>1143</ele>
        <time>2011-08-18T15:30:54Z</time>
      </trkpt>
      <trkpt lat="44.09697" lon="6.55629">
        <ele>1144</ele>
        <time>2011-08-18T15:30:58Z</time>
      </trkpt>
      <trkpt lat="44.09692" lon="6.55609">
        <ele>1144</ele>
        <time>2011-08-18T15:31:06Z</time>
      </trkpt>
      <trkpt lat="44.09668" lon="6.55584">
        <ele>1144</ele>
        <time>2011-08-18T15:31:21Z</time>
      </trkpt>
      <trkpt lat="44.0967" lon="6.55542">
        <ele>1146</ele>
        <time>2011-08-18T15:31:32Z</time>
      </trkpt>
      <trkpt lat="44.09662" lon="6.55534">
        <ele>1143</ele>
        <time>2011-08-18T15:31:36Z</time>
      </trkpt>
      <trkpt lat="44.09656" lon="6.55515">
        <ele>1143</ele>
        <time>2011-08-18T15:31:42Z</time>
      </trkpt>
      <trkpt lat="44.09662" lon="6.55504">
        <ele>1144</ele>
        <time>2011-08-18T15:31:47Z</time>
      </trkpt>
      <trkpt lat="44.09671" lon="6.5549">
        <ele>1146</ele>
        <time>2011-08-18T15:31:54Z</time>
      </trkpt>
      <trkpt lat="44.09668" lon="6.55469">
        <ele>1147</ele>
        <time>2011-08-18T15:32:05Z</time>
      </trkpt>
      <trkpt lat="44.0966" lon="6.55456">
        <ele>1146</ele>
        <time>2011-08-18T15:32:12Z</time>
      </trkpt>
      <trkpt lat="44.09653" lon="6.5545">
        <ele>1146</ele>
        <time>2011-08-18T15:32:26Z</time>
      </trkpt>
      <trkpt lat="44.09655" lon="6.55448">
        <ele>1146</ele>
        <time>2011-08-18T15:32:38Z</time>
      </trkpt>
      <trkpt lat="44.09655" lon="6.5544">
        <ele>1146</ele>
        <time>2011-08-18T15:32:42Z</time>
      </trkpt>
      <trkpt lat="44.09638" lon="6.55401">
        <ele>1150</ele>
        <time>2011-08-18T15:32:58Z</time>
      </trkpt>
      <trkpt lat="44.09612" lon="6.55355">
        <ele>1152</ele>
        <time>2011-08-18T15:33:18Z</time>
      </trkpt>
      <trkpt lat="44.09591" lon="6.55313">
        <ele>1154</ele>
        <time>2011-08-18T15:33:34Z</time>
      </trkpt>
      <trkpt lat="44.09562" lon="6.55251">
        <ele>1154</ele>
        <time>2011-08-18T15:33:55Z</time>
      </trkpt>
      <trkpt lat="44.0954" lon="6.55192">
        <ele>1152</ele>
        <time>2011-08-18T15:34:10Z</time>
      </trkpt>
      <trkpt lat="44.09505" lon="6.55101">
        <ele>1152</ele>
        <time>2011-08-18T15:34:27Z</time>
      </trkpt>
      <trkpt lat="44.09498" lon="6.55085">
        <ele>1151</ele>
        <time>2011-08-18T15:34:30Z</time>
      </trkpt>
      <trkpt lat="44.09481" lon="6.55042">
        <ele>1151</ele>
        <time>2011-08-18T15:34:37Z</time>
      </trkpt>
      <trkpt lat="44.09444" lon="6.54949">
        <ele>1156</ele>
        <time>2011-08-18T15:34:57Z</time>
      </trkpt>
      <trkpt lat="44.09398" lon="6.5486">
        <ele>1154</ele>
        <time>2011-08-18T15:35:15Z</time>
      </trkpt>
      <trkpt lat="44.0937" lon="6.54791">
        <ele>1159</ele>
        <time>2011-08-18T15:35:29Z</time>
      </trkpt>
      <trkpt lat="44.09327" lon="6.54701">
        <ele>1156</ele>
        <time>2011-08-18T15:35:48Z</time>
      </trkpt>
      <trkpt lat="44.09319" lon="6.54686">
        <ele>1157</ele>
        <time>2011-08-18T15:35:51Z</time>
      </trkpt>
      <trkpt lat="44.09311" lon="6.54673">
        <ele>1157</ele>
        <time>2011-08-18T15:35:54Z</time>
      </trkpt>
      <trkpt lat="44.09278" lon="6.54649">
        <ele>1159</ele>
        <time>2011-08-18T15:36:03Z</time>
      </trkpt>
      <trkpt lat="44.09223" lon="6.54587">
        <ele>1152</ele>
        <time>2011-08-18T15:36:21Z</time>
      </trkpt>
      <trkpt lat="44.09186" lon="6.54483">
        <ele>1158</ele>
        <time>2011-08-18T15:36:41Z</time>
      </trkpt>
      <trkpt lat="44.09169" lon="6.5436">
        <ele>1166</ele>
        <time>2011-08-18T15:37:02Z</time>
      </trkpt>
      <trkpt lat="44.09186" lon="6.54257">
        <ele>1168</ele>
        <time>2011-08-18T15:37:20Z</time>
      </trkpt>
      <trkpt lat="44.09191" lon="6.54233">
        <ele>1169</ele>
        <time>2011-08-18T15:37:24Z</time>
      </trkpt>
      <trkpt lat="44.09194" lon="6.54126">
        <ele>1169</ele>
        <time>2011-08-18T15:37:41Z</time>
      </trkpt>
      <trkpt lat="44.09179" lon="6.5401">
        <ele>1168</ele>
        <time>2011-08-18T15:38:01Z</time>
      </trkpt>
      <trkpt lat="44.09174" lon="6.53971">
        <ele>1168</ele>
        <time>2011-08-18T15:38:07Z</time>
      </trkpt>
      <trkpt lat="44.0916" lon="6.5387">
        <ele>1159</ele>
        <time>2011-08-18T15:38:21Z</time>
      </trkpt>
      <trkpt lat="44.0915" lon="6.53852">
        <ele>1159</ele>
        <time>2011-08-18T15:38:25Z</time>
      </trkpt>
      <trkpt lat="44.09117" lon="6.53769">
        <ele>1160</ele>
        <time>2011-08-18T15:38:42Z</time>
      </trkpt>
      <trkpt lat="44.09111" lon="6.53758">
        <ele>1160</ele>
        <time>2011-08-18T15:38:45Z</time>
      </trkpt>
      <trkpt lat="44.0907" lon="6.53763">
        <ele>1158</ele>
        <time>2011-08-18T15:38:57Z</time>
      </trkpt>
      <trkpt lat="44.09015" lon="6.53775">
        <ele>1158</ele>
        <time>2011-08-18T15:39:12Z</time>
      </trkpt>
      <trkpt lat="44.08955" lon="6.53769">
        <ele>1161</ele>
        <time>2011-08-18T15:39:28Z</time>
      </trkpt>
      <trkpt lat="44.08929" lon="6.53731">
        <ele>1163</ele>
        <time>2011-08-18T15:39:40Z</time>
      </trkpt>
      <trkpt lat="44.08922" lon="6.53694">
        <ele>1163</ele>
        <time>2011-08-18T15:39:52Z</time>
      </trkpt>
      <trkpt lat="44.08924" lon="6.53689">
        <ele>1163</ele>
        <time>2011-08-18T15:40:06Z</time>
      </trkpt>
      <trkpt lat="44.08927" lon="6.53683">
        <ele>1163</ele>
        <time>2011-08-18T15:40:29Z</time>
      </trkpt>
      <trkpt lat="44.08933" lon="6.53666">
        <ele>1164</ele>
        <time>2011-08-18T15:40:48Z</time>
      </trkpt>
      <trkpt lat="44.08934" lon="6.53661">
        <ele>1164</ele>
        <time>2011-08-18T15:40:53Z</time>
      </trkpt>
      <trkpt lat="44.08935" lon="6.53641">
        <ele>1163</ele>
        <time>2011-08-18T15:41:09Z</time>
      </trkpt>
      <trkpt lat="44.08932" lon="6.53624">
        <ele>1163</ele>
        <time>2011-08-18T15:41:23Z</time>
      </trkpt>
      <trkpt lat="44.0893" lon="6.53623">
        <ele>1163</ele>
        <time>2011-08-18T15:41:25Z</time>
      </trkpt>
      <trkpt lat="44.08925" lon="6.5362">
        <ele>1164</ele>
        <time>2011-08-18T15:41:39Z</time>
      </trkpt>
      <trkpt lat="44.08925" lon="6.53621">
        <ele>1164</ele>
        <time>2011-08-18T15:43:29Z</time>
      </trkpt>
      <trkpt lat="44.08922" lon="6.53591">
        <ele>1165</ele>
        <time>2011-08-18T15:43:50Z</time>
      </trkpt>
      <trkpt lat="44.08927" lon="6.53561">
        <ele>1165</ele>
        <time>2011-08-18T15:44:14Z</time>
      </trkpt>
      <trkpt lat="44.08931" lon="6.53552">
        <ele>1164</ele>
        <time>2011-08-18T15:44:26Z</time>
      </trkpt>
      <trkpt lat="44.08935" lon="6.5352">
        <ele>1165</ele>
        <time>2011-08-18T15:44:50Z</time>
      </trkpt>
      <trkpt lat="44.08935" lon="6.53499">
        <ele>1166</ele>
        <time>2011-08-18T15:45:06Z</time>
      </trkpt>
      <trkpt lat="44.08942" lon="6.53476">
        <ele>1165</ele>
        <time>2011-08-18T15:45:23Z</time>
      </trkpt>
    </trkseg>
  </trk>
</gpx>